Fremont, Nebraska
Current Conditions -  °F | °C
As of 10:35 PM on Tuesday 21 Oct 2014 (Local Time) from KFET Reporting Station
Clear Clear  
Wind Chill: 60°   Ceiling: Unl
Heat Index: 60°   Visibility: 10mi
Dew Point: 39°   Wind: 8mph
Humidity: 46%   Direction: 120°ESE
Pressure: 30.05"   Gusts: NA
Location:  41.43°N, 96.5°W
Report Text: KFET 220335Z AUTO 12007KT 10SM CLR 16/04 A3005 RMK AO2 T01560041
Loading
Personal Weather Stations






























Interactive Weather Map
Tropical Storm Tracking
New forecast layout! Learn more

10-Day Weather Forecast

Advertisements
Track Severe Weather on mobile